Hovedside
METAR-TAF:

METAR-TAF

Lufthavner :

Majuro, Marshalløyene

breddegrad: 07-04N, lengdegrad: 171-17E, høyde over havet: 2 m

Gjeldene værobservasjon

Denne rapporten ble laget for 16 timer og 53 minutter siden, klokken 22:51 UTC
Vind 17 kt fra Nordøst
Temperatur 29°C
Luftfuktighet 79%
Trykk 1012 hPa
Sikt: 24.1 km
Få skyer i en høyde av 1500 ft
Spredte skyer i en høyde av 5000 ft
Brutte skyer i en høyde av 12000 ft
Brutte skyer i en høyde av 30000 ft

METAR: PKMJ 172251Z 05017KT 15SM FEW015 SCT050 BKN120 BKN300 29/25 A2987 RMK LAST

Tid: 03:44 (15:44 UTC)

Varsel

Denne rapporten ble laget for 4 timer og 24 minutter siden, klokken 11:20 UTC
Varsel gyldig fra 18. klokken 12 UTC til 19. klokken 12 UTC
Vind 16 kt fra Øst-nordøst
Sikt: 10 km
Få skyer i en høyde av 1500 ft
Spredte skyer i en høyde av 5000 ft

TAF: PKMJ 181120Z 1812/1912 06016KT P6SM FEW015 SCT050

Værobservasjoner og værvarsel for over 4000 flyplasser (METAR- og TAF-rapporter).

Tilgjengelige stasjoner er representert av de røde og gule prikkene på kartet.

Hold musepekeren over prikken for å se navnet på stasjonen.

Klikk så for å se værobservasjoner og -varsler.

For å forandre kartet kan du klikke på den grønne knappen med svart kryss for å zoome inn, på den grønne knappen med strek for å zoome ut, eller på de grønne pilene for å se tilstøtende kart.


METAR-TAF: